« Back
NWS Peachtree City, Ga » Text Product » MCN Terminal Aerodrome Forecast


Printer-friendly Version
Current Version              Previous Versions:   1  2  3  4  5  6  7  8  9  

Terminal Aerodrome Forecast

723
FTUS42 KFFC 251124
TAFMCN
TAF
KMCN 251124Z 2512/2612 26005KT P6SM SKC
     FM251500 23006KT P6SM FEW250
     FM251900 20009KT P6SM SCT250
     FM260300 23006KT P6SM OVC050
     FM260900 26005KT P6SM OVC025=



USA.gov is the U.S. government's official web portal to all federal, state and local government web resources and services.